createdAt,value
2018-05-12T00:01:43.601Z,12.93
2018-05-12T00:02:43.580Z,12.90
2018-05-12T00:04:36.440Z,12.97
2018-05-12T00:05:36.411Z,12.90
2018-05-12T00:07:29.259Z,12.79
2018-05-12T00:08:29.240Z,12.70
2018-05-12T00:10:22.101Z,12.76
2018-05-12T00:11:22.073Z,12.58
2018-05-12T00:13:14.931Z,12.62
2018-05-12T00:14:14.910Z,12.54
2018-05-12T00:16:07.759Z,12.45
2018-05-12T00:17:07.740Z,12.29
2018-05-12T00:19:00.600Z,12.36
2018-05-12T00:20:00.575Z,12.35
2018-05-12T00:21:53.429Z,12.31
2018-05-12T00:22:53.407Z,12.32
2018-05-12T00:24:46.271Z,12.31
2018-05-12T00:25:46.242Z,12.17
2018-05-12T00:27:39.098Z,12.17
2018-05-12T00:28:39.070Z,12.21
2018-05-12T00:30:31.926Z,12.07
2018-05-12T00:31:31.905Z,12.12
2018-05-12T00:33:24.761Z,12.18
2018-05-12T00:34:24.835Z,12.17
2018-05-12T00:36:17.591Z,12.13
2018-05-12T00:37:17.567Z,12.12
2018-05-12T00:39:10.426Z,12.04
2018-05-12T00:40:10.399Z,11.88
2018-05-12T00:42:03.251Z,11.94
2018-05-12T00:43:03.293Z,11.83
2018-05-12T00:44:56.089Z,11.68
2018-05-12T00:45:56.061Z,11.75
2018-05-12T00:47:48.915Z,11.90
2018-05-12T00:48:48.888Z,11.91
2018-05-12T00:50:41.739Z,11.69
2018-05-12T00:51:41.719Z,11.95
2018-05-12T00:53:34.578Z,11.83
2018-05-12T00:54:34.555Z,11.73
2018-05-12T00:56:27.399Z,11.78
2018-05-12T00:57:27.380Z,11.73
2018-05-12T00:59:20.243Z,11.68
2018-05-12T01:00:20.211Z,11.77
2018-05-12T01:02:13.061Z,11.69
2018-05-12T01:03:13.040Z,11.63
2018-05-12T01:05:05.898Z,11.57
2018-05-12T01:06:05.870Z,11.60
2018-05-12T01:07:58.728Z,11.55
2018-05-12T01:08:58.705Z,11.50
2018-05-12T01:10:51.554Z,11.51
2018-05-12T01:11:51.534Z,11.48
2018-05-12T01:13:44.395Z,11.51
2018-05-12T01:14:44.365Z,11.48
2018-05-12T01:16:37.216Z,11.80
2018-05-12T01:17:37.195Z,11.75
2018-05-12T01:19:30.057Z,11.51
2018-05-12T01:20:30.028Z,11.55
2018-05-12T01:22:22.875Z,11.43
2018-05-12T01:23:22.856Z,11.36
2018-05-12T01:25:15.714Z,11.33
2018-05-12T01:26:15.686Z,11.27
2018-05-12T01:28:08.547Z,11.48
2018-05-12T01:29:08.516Z,11.36
2018-05-12T01:31:01.369Z,11.43
2018-05-12T01:32:01.347Z,11.37
2018-05-12T01:33:54.202Z,11.37
2018-05-12T01:34:54.256Z,11.48
2018-05-12T01:36:47.023Z,11.66
2018-05-12T01:37:47.004Z,11.55
2018-05-12T01:39:39.860Z,11.41
2018-05-12T01:40:39.832Z,11.36
2018-05-12T01:42:32.688Z,11.30
2018-05-12T01:43:32.666Z,11.23
2018-05-12T01:45:25.519Z,11.27
2018-05-12T01:46:25.490Z,11.41
2018-05-12T01:48:18.347Z,11.48
2018-05-12T01:49:18.321Z,11.48
2018-05-12T01:51:11.172Z,11.23
2018-05-12T01:52:11.151Z,11.32
2018-05-12T01:54:04.028Z,11.50
2018-05-12T01:55:03.996Z,11.45
2018-05-12T01:56:56.846Z,11.55
2018-05-12T01:57:56.831Z,11.65
2018-05-12T01:59:49.692Z,11.70
2018-05-12T02:00:49.663Z,11.72
2018-05-12T02:02:42.517Z,11.50
2018-05-12T02:03:42.493Z,11.44
2018-05-12T02:05:35.352Z,11.36
2018-05-12T02:06:35.325Z,11.33
2018-05-12T02:08:28.181Z,11.26
2018-05-12T02:09:28.153Z,11.14
2018-05-12T02:11:21.004Z,11.44
2018-05-12T02:12:20.985Z,11.29
2018-05-12T02:14:13.844Z,11.29
2018-05-12T02:15:13.815Z,11.19
2018-05-12T02:17:06.668Z,11.33
2018-05-12T02:18:06.646Z,11.44
2018-05-12T02:19:59.504Z,11.32
2018-05-12T02:20:59.479Z,11.30
2018-05-12T02:22:52.325Z,11.18
2018-05-12T02:23:52.306Z,11.08
2018-05-12T02:25:45.166Z,10.94
2018-05-12T02:26:45.137Z,10.90
2018-05-12T02:28:38.002Z,10.96
2018-05-12T02:29:37.968Z,10.81
2018-05-12T02:31:30.816Z,10.93
2018-05-12T02:32:30.794Z,11.00
2018-05-12T02:34:23.729Z,10.84
2018-05-12T02:35:23.625Z,10.79
2018-05-12T02:37:16.476Z,10.76
2018-05-12T02:38:16.461Z,10.81
2018-05-12T02:40:09.313Z,10.97
2018-05-12T02:41:09.289Z,10.87
2018-05-12T02:43:02.131Z,10.96
2018-05-12T02:44:02.111Z,11.12
2018-05-12T02:45:54.967Z,11.26
2018-05-12T02:46:54.940Z,11.29
2018-05-12T02:48:47.803Z,11.15
2018-05-12T02:49:47.769Z,11.14
2018-05-12T02:51:40.621Z,10.94
2018-05-12T02:52:40.605Z,10.87
2018-05-12T02:54:33.454Z,10.86
2018-05-12T02:55:33.425Z,10.96
2018-05-12T02:57:26.281Z,10.79
2018-05-12T02:58:26.253Z,10.74
2018-05-12T03:00:19.107Z,10.76
2018-05-12T03:01:19.081Z,10.71
2018-05-12T03:03:11.941Z,10.69
2018-05-12T03:04:11.913Z,10.63
2018-05-12T03:06:04.764Z,10.71
2018-05-12T03:07:04.748Z,10.60
2018-05-12T03:08:57.601Z,10.53
2018-05-12T03:09:57.572Z,10.68
2018-05-12T03:11:50.423Z,10.59
2018-05-12T03:12:50.401Z,10.57
2018-05-12T03:14:43.255Z,10.51
2018-05-12T03:15:43.228Z,10.44
2018-05-12T03:17:36.075Z,10.46
2018-05-12T03:18:36.055Z,10.31
2018-05-12T03:20:28.912Z,10.30
2018-05-12T03:21:28.882Z,10.35
2018-05-12T03:23:21.744Z,10.34
2018-05-12T03:24:21.710Z,10.35
2018-05-12T03:26:14.640Z,10.26
2018-05-12T03:27:14.537Z,10.15
2018-05-12T03:29:07.393Z,10.16
2018-05-12T03:30:07.365Z,10.17
2018-05-12T03:32:00.215Z,10.19
2018-05-12T03:33:00.194Z,10.13
2018-05-12T03:34:53.051Z,10.05
2018-05-12T03:35:53.022Z,10.04
2018-05-12T03:37:45.880Z,10.01
2018-05-12T03:38:45.849Z,10.01
2018-05-12T03:40:38.708Z,10.09
2018-05-12T03:41:38.677Z,10.16
2018-05-12T03:43:31.536Z,10.34
2018-05-12T03:44:31.506Z,10.25
2018-05-12T03:46:24.354Z,10.19
2018-05-12T03:47:24.330Z,10.20
2018-05-12T03:49:17.188Z,10.31
2018-05-12T03:50:17.158Z,10.25
2018-05-12T03:52:10.017Z,10.31
2018-05-12T03:53:09.991Z,10.28
2018-05-12T03:55:02.843Z,10.22
2018-05-12T03:56:02.819Z,10.20
2018-05-12T03:57:55.664Z,10.15
2018-05-12T03:58:55.648Z,10.26
2018-05-12T04:00:48.517Z,10.48
2018-05-12T04:01:48.470Z,10.56
2018-05-12T04:03:41.323Z,10.68
2018-05-12T04:04:41.296Z,10.79
2018-05-12T04:06:34.144Z,10.92
2018-05-12T04:07:34.122Z,11.04
2018-05-12T04:09:26.977Z,11.30
2018-05-12T04:10:26.948Z,11.33
2018-05-12T04:12:19.799Z,11.37
2018-05-12T04:13:19.776Z,11.27
2018-05-12T04:15:12.636Z,11.25
2018-05-12T04:16:12.603Z,11.26
2018-05-12T04:18:05.454Z,11.08
2018-05-12T04:19:05.432Z,10.97
2018-05-12T04:20:58.387Z,11.30
2018-05-12T04:21:58.261Z,11.69
2018-05-12T04:23:51.110Z,12.29
2018-05-12T04:24:51.088Z,12.58
2018-05-12T04:26:43.950Z,13.12
2018-05-12T04:27:43.915Z,13.22
2018-05-12T04:29:36.768Z,13.78
2018-05-12T04:30:36.748Z,13.95
2018-05-12T04:32:29.608Z,13.83
2018-05-12T04:33:29.579Z,14.03
2018-05-12T04:35:22.430Z,14.32
2018-05-12T04:36:22.410Z,14.66
2018-05-12T04:38:15.269Z,14.53
2018-05-12T04:39:15.240Z,14.66
2018-05-12T04:41:08.091Z,15.33
2018-05-12T04:42:08.073Z,14.36
2018-05-12T04:44:00.930Z,15.36
2018-05-12T04:45:00.905Z,15.46
2018-05-12T04:46:53.754Z,15.75
2018-05-12T04:47:53.739Z,15.46
2018-05-12T04:49:46.602Z,15.18
2018-05-12T04:50:46.576Z,15.47
2018-05-12T04:52:39.513Z,15.15
2018-05-12T04:53:39.412Z,15.67
2018-05-12T04:55:32.265Z,15.70
2018-05-12T04:56:32.247Z,15.47
2018-05-12T04:58:25.111Z,14.37
2018-05-12T04:59:25.084Z,14.84
2018-05-12T05:01:17.948Z,14.79
2018-05-12T05:02:17.927Z,14.79
2018-05-12T05:04:10.792Z,15.62
2018-05-12T05:05:10.769Z,15.82
2018-05-12T05:07:03.630Z,15.44
2018-05-12T05:08:03.612Z,15.86
2018-05-12T05:09:56.480Z,15.61
2018-05-12T05:10:56.455Z,15.90
2018-05-12T05:12:49.323Z,17.38
2018-05-12T05:13:49.300Z,17.38
2018-05-12T05:15:42.174Z,17.80
2018-05-12T05:16:42.144Z,16.84
2018-05-12T05:18:35.018Z,15.91
2018-05-12T05:19:34.995Z,17.01
2018-05-12T05:21:27.854Z,17.89
2018-05-12T05:22:27.839Z,18.38
2018-05-12T05:24:20.713Z,18.78
2018-05-12T05:25:20.691Z,19.40
2018-05-12T05:27:13.555Z,19.89
2018-05-12T05:28:13.539Z,20.43
2018-05-12T05:30:06.414Z,20.88
2018-05-12T05:31:06.389Z,20.93
2018-05-12T05:32:59.260Z,21.50
2018-05-12T05:33:59.238Z,21.24
2018-05-12T05:35:52.103Z,20.43
2018-05-12T05:36:52.090Z,19.79
2018-05-12T05:38:44.961Z,19.02
2018-05-12T05:39:44.941Z,19.41
2018-05-12T05:41:37.826Z,19.86
2018-05-12T05:42:37.798Z,20.99
2018-05-12T05:44:30.670Z,20.14
2018-05-12T05:45:30.651Z,20.07
2018-05-12T05:47:23.521Z,20.31
2018-05-12T05:48:23.510Z,21.33
2018-05-12T05:50:16.466Z,22.35
2018-05-12T05:51:16.367Z,21.52
2018-05-12T05:53:09.242Z,21.27
2018-05-12T05:54:09.223Z,20.18
2018-05-12T05:56:02.093Z,22.17
2018-05-12T05:57:02.080Z,21.92
2018-05-12T05:58:54.958Z,24.17
2018-05-12T05:59:54.942Z,24.36
2018-05-12T06:01:47.813Z,23.00
2018-05-12T06:02:47.798Z,23.08
2018-05-12T06:04:40.677Z,24.43
2018-05-12T06:05:40.662Z,24.63
2018-05-12T06:07:33.531Z,24.28
2018-05-12T06:08:33.523Z,22.70
2018-05-12T06:10:26.399Z,23.50
2018-05-12T06:11:26.382Z,23.40
2018-05-12T06:13:19.259Z,24.08
2018-05-12T06:14:19.245Z,22.29
2018-05-12T06:16:12.118Z,22.57
2018-05-12T06:17:12.109Z,20.74
2018-05-12T06:19:04.991Z,21.06
2018-05-12T06:20:04.973Z,19.58
2018-05-12T06:21:57.844Z,18.59
2018-05-12T06:22:57.833Z,18.04
2018-05-12T06:24:50.720Z,17.92
2018-05-12T06:25:50.702Z,18.26
2018-05-12T06:27:43.570Z,18.40
2018-05-12T06:28:43.558Z,18.13
2018-05-12T06:30:36.437Z,18.62
2018-05-12T06:31:36.416Z,18.08
2018-05-12T06:33:29.296Z,18.89
2018-05-12T06:34:29.271Z,18.93
2018-05-12T06:36:22.140Z,18.40
2018-05-12T06:37:22.126Z,19.15
2018-05-12T06:39:15.005Z,20.51
2018-05-12T06:40:14.993Z,20.18
2018-05-12T06:42:07.856Z,19.86
2018-05-12T06:43:07.845Z,20.24
2018-05-12T06:45:00.721Z,20.55
2018-05-12T06:46:00.709Z,19.88
2018-05-12T06:47:53.583Z,21.62
2018-05-12T06:48:53.565Z,22.04
2018-05-12T06:50:46.435Z,22.41
2018-05-12T06:51:46.426Z,22.87
2018-05-12T06:53:39.306Z,22.85
2018-05-12T06:54:39.291Z,22.93
2018-05-12T06:56:32.175Z,21.99
2018-05-12T06:57:32.156Z,22.59
2018-05-12T06:59:25.112Z,23.15
2018-05-12T07:00:25.022Z,22.15
2018-05-12T07:02:17.899Z,22.33
2018-05-12T07:03:17.890Z,20.67
2018-05-12T07:05:10.776Z,22.73
2018-05-12T07:06:10.765Z,23.95
2018-05-12T07:08:03.645Z,22.60
2018-05-12T07:09:03.628Z,23.71
2018-05-12T07:10:56.505Z,23.95
2018-05-12T07:11:56.498Z,23.73
2018-05-12T07:13:49.386Z,24.26
2018-05-12T07:14:49.371Z,22.85
2018-05-12T07:16:42.248Z,21.69
2018-05-12T07:17:42.243Z,23.37
2018-05-12T07:19:35.128Z,23.15
2018-05-12T07:20:35.114Z,23.63
2018-05-12T07:22:27.992Z,23.17
2018-05-12T07:23:27.986Z,22.28
2018-05-12T07:25:20.873Z,22.48
2018-05-12T07:26:20.860Z,23.10
2018-05-12T07:28:13.745Z,22.54
2018-05-12T07:29:13.734Z,23.08
2018-05-12T07:31:06.613Z,24.65
2018-05-12T07:32:06.605Z,25.04
2018-05-12T07:33:59.492Z,24.55
2018-05-12T07:34:59.479Z,25.46
2018-05-12T07:36:52.365Z,22.51
2018-05-12T07:37:52.355Z,25.44
2018-05-12T07:39:45.241Z,27.74
2018-05-12T07:40:45.228Z,28.88
2018-05-12T07:42:38.176Z,28.81
2018-05-12T07:43:38.103Z,28.20
2018-05-12T07:45:31.009Z,28.38
2018-05-12T07:46:30.983Z,28.35
2018-05-12T07:48:23.879Z,26.73
2018-05-12T07:49:23.863Z,27.87
2018-05-12T07:51:16.748Z,28.93
2018-05-12T07:52:16.744Z,27.98
2018-05-12T07:54:09.640Z,28.35
2018-05-12T07:55:09.626Z,26.81
2018-05-12T07:57:02.533Z,27.02
2018-05-12T07:58:02.509Z,26.60
2018-05-12T07:59:55.401Z,27.93
2018-05-12T08:00:55.390Z,30.27
2018-05-12T08:02:48.276Z,28.59
2018-05-12T08:03:48.273Z,26.70
2018-05-12T08:05:41.169Z,26.60
2018-05-12T08:06:41.155Z,29.13
2018-05-12T08:08:34.048Z,28.57
2018-05-12T08:09:34.039Z,29.71
2018-05-12T08:11:26.927Z,28.79
2018-05-12T08:12:26.925Z,28.56
2018-05-12T08:14:19.820Z,28.29
2018-05-12T08:15:19.810Z,28.74
2018-05-12T08:17:12.699Z,28.01
2018-05-12T08:18:12.698Z,29.19
2018-05-12T08:20:05.598Z,29.31
2018-05-12T08:21:05.584Z,30.65
2018-05-12T08:22:58.473Z,30.70
2018-05-12T08:23:58.472Z,29.19
2018-05-12T08:25:51.369Z,30.91
2018-05-12T08:26:51.413Z,31.12
2018-05-12T08:28:44.256Z,26.15
2018-05-12T08:29:44.249Z,27.42
2018-05-12T08:31:37.150Z,29.12
2018-05-12T08:32:37.139Z,28.12
2018-05-12T08:34:30.041Z,27.64
2018-05-12T08:35:30.030Z,28.47
2018-05-12T08:37:22.934Z,26.44
2018-05-12T08:38:22.934Z,26.84
2018-05-12T08:40:15.829Z,28.45
2018-05-12T08:41:15.822Z,27.39
2018-05-12T08:43:08.708Z,28.37
2018-05-12T08:44:08.710Z,28.39
2018-05-12T08:46:01.606Z,27.59
2018-05-12T08:47:01.595Z,28.88
2018-05-12T08:48:54.494Z,27.70
2018-05-12T08:49:54.486Z,27.29
2018-05-12T08:51:47.375Z,27.73
2018-05-12T08:52:47.374Z,26.19
2018-05-12T08:54:40.271Z,24.47
2018-05-12T08:55:40.262Z,25.17
2018-05-12T08:57:33.152Z,28.32
2018-05-12T08:58:33.149Z,28.38
2018-05-12T09:00:26.044Z,28.49
2018-05-12T09:01:26.038Z,29.45
2018-05-12T09:03:18.938Z,30.32
2018-05-12T09:04:18.925Z,30.10
2018-05-12T09:06:11.812Z,29.81
2018-05-12T09:07:11.834Z,29.61
2018-05-12T09:09:04.710Z,31.42
2018-05-12T09:10:04.703Z,30.80
2018-05-12T09:11:57.599Z,28.79
2018-05-12T09:12:57.604Z,30.92
2018-05-12T09:14:50.500Z,31.59
2018-05-12T09:15:50.491Z,28.57
2018-05-12T09:17:43.381Z,28.08
2018-05-12T09:18:43.379Z,27.63
2018-05-12T09:20:36.282Z,28.35
2018-05-12T09:21:36.276Z,29.56
2018-05-12T09:23:29.172Z,29.72
2018-05-12T09:24:29.162Z,29.34
2018-05-12T09:26:22.053Z,27.71
2018-05-12T09:27:22.053Z,27.63
2018-05-12T09:29:14.953Z,29.01
2018-05-12T09:30:14.945Z,28.59
2018-05-12T09:32:07.838Z,28.25
2018-05-12T09:33:07.838Z,29.14
2018-05-12T09:35:00.737Z,29.05
2018-05-12T09:36:00.731Z,28.56
2018-05-12T09:37:53.627Z,30.68
2018-05-12T09:38:53.625Z,30.94
2018-05-12T09:40:46.584Z,30.80
2018-05-12T09:41:46.514Z,28.76
2018-05-12T09:43:39.412Z,28.23
2018-05-12T09:44:39.406Z,29.51
2018-05-12T09:46:32.300Z,30.31
2018-05-12T09:47:32.306Z,29.66
2018-05-12T09:49:25.200Z,29.66
2018-05-12T09:50:25.194Z,31.44
2018-05-12T09:52:18.153Z,30.19
2018-05-12T09:53:18.092Z,29.90
2018-05-12T09:55:10.988Z,29.82
2018-05-12T09:56:10.983Z,32.08
2018-05-12T09:58:03.874Z,30.03
2018-05-12T09:59:03.877Z,29.35
2018-05-12T10:00:56.774Z,29.17
2018-05-12T10:01:56.766Z,30.91
2018-05-12T10:03:49.666Z,30.68
2018-05-12T10:04:49.661Z,30.19
2018-05-12T10:06:42.557Z,27.83
2018-05-12T10:07:42.558Z,29.12
2018-05-12T10:09:35.477Z,28.93
2018-05-12T10:10:35.452Z,28.57
2018-05-12T10:12:28.347Z,30.00
2018-05-12T10:13:28.345Z,29.39
2018-05-12T10:15:21.284Z,29.76
2018-05-12T10:16:21.234Z,29.39
2018-05-12T10:18:14.129Z,29.35
2018-05-12T10:19:14.128Z,29.41
2018-05-12T10:21:07.032Z,29.63
2018-05-12T10:22:07.024Z,29.84
2018-05-12T10:23:59.925Z,31.40
2018-05-12T10:24:59.919Z,30.00
2018-05-12T10:26:52.816Z,31.14
2018-05-12T10:27:52.814Z,32.21
2018-05-12T10:29:45.783Z,31.97
2018-05-12T10:30:45.706Z,32.55
2018-05-12T10:32:38.599Z,31.93
2018-05-12T10:33:38.607Z,29.24
2018-05-12T10:35:31.567Z,28.35
2018-05-12T10:36:31.496Z,29.08
2018-05-12T10:38:24.388Z,31.44
2018-05-12T10:39:24.388Z,28.88
2018-05-12T10:41:17.293Z,29.56
2018-05-12T10:42:17.285Z,29.73
2018-05-12T10:44:10.185Z,29.66
2018-05-12T10:45:10.181Z,29.05
2018-05-12T10:47:03.069Z,30.61
2018-05-12T10:48:03.071Z,30.63
2018-05-12T10:49:55.971Z,29.07
2018-05-12T10:50:55.961Z,28.27
2018-05-12T10:52:48.847Z,29.61
2018-05-12T10:53:48.849Z,30.12
2018-05-12T10:55:41.750Z,29.17
2018-05-12T10:56:41.739Z,28.69
2018-05-12T10:58:34.627Z,29.88
2018-05-12T10:59:34.627Z,30.43
2018-05-12T11:01:28.523Z,31.80
2018-05-12T11:02:28.516Z,30.78
2018-05-12T11:04:21.423Z,29.13
2018-05-12T11:05:21.403Z,29.47
2018-05-12T11:07:14.291Z,29.57
2018-05-12T11:08:14.293Z,28.62
2018-05-12T11:10:07.188Z,29.79
2018-05-12T11:11:07.175Z,28.62
2018-05-12T11:13:00.060Z,28.08
2018-05-12T11:14:00.063Z,29.39
2018-05-12T11:15:53.062Z,29.08
2018-05-12T11:16:52.946Z,28.25
2018-05-12T11:18:45.848Z,28.35
2018-05-12T11:19:45.830Z,27.27
2018-05-12T11:21:38.735Z,27.65
2018-05-12T11:22:38.714Z,27.40
2018-05-12T11:24:31.607Z,28.62
2018-05-12T11:25:31.598Z,28.82
2018-05-12T11:27:24.485Z,29.87
2018-05-12T11:28:24.481Z,28.75
2018-05-12T11:30:17.374Z,30.46
2018-05-12T11:31:17.360Z,30.83
2018-05-12T11:33:10.314Z,28.38
2018-05-12T11:34:10.250Z,29.13
2018-05-12T11:36:03.143Z,28.91
2018-05-12T11:37:03.132Z,29.29
2018-05-12T11:38:56.022Z,29.82
2018-05-12T11:39:56.015Z,31.00
2018-05-12T11:41:48.901Z,29.59
2018-05-12T11:42:48.901Z,30.43
2018-05-12T11:44:41.905Z,28.07
2018-05-12T11:45:41.799Z,28.38
2018-05-12T11:47:34.664Z,27.75
2018-05-12T11:48:34.660Z,28.35
2018-05-12T11:50:27.562Z,28.20
2018-05-12T11:51:27.581Z,29.01
2018-05-12T11:53:20.491Z,30.40
2018-05-12T11:54:20.429Z,30.68
2018-05-12T11:56:13.324Z,28.72
2018-05-12T11:57:13.309Z,29.23
2018-05-12T11:59:06.199Z,29.47
2018-05-12T12:00:06.190Z,29.13
2018-05-12T12:01:59.080Z,28.72
2018-05-12T12:02:59.076Z,26.56
2018-05-12T12:04:51.967Z,27.27
2018-05-12T12:05:51.955Z,27.71
2018-05-12T12:07:44.838Z,27.49
2018-05-12T12:08:44.833Z,28.22
2018-05-12T12:10:37.726Z,29.71
2018-05-12T12:11:37.712Z,29.73
2018-05-12T12:13:30.595Z,29.39
2018-05-12T12:14:30.591Z,28.70
2018-05-12T12:16:23.487Z,29.26
2018-05-12T12:17:23.473Z,28.69
2018-05-12T12:19:16.362Z,27.52
2018-05-12T12:20:16.350Z,28.04
2018-05-12T12:22:09.234Z,28.37
2018-05-12T12:23:09.229Z,27.86
2018-05-12T12:25:02.117Z,27.37
2018-05-12T12:26:02.109Z,28.32
2018-05-12T12:27:55.052Z,27.27
2018-05-12T12:28:54.978Z,27.73
2018-05-12T12:30:47.868Z,28.10
2018-05-12T12:31:47.853Z,28.79
2018-05-12T12:33:40.732Z,27.92
2018-05-12T12:34:40.732Z,27.17
2018-05-12T12:36:33.619Z,30.00
2018-05-12T12:37:33.600Z,29.60
2018-05-12T12:39:26.489Z,30.37
2018-05-12T12:40:26.473Z,29.93
2018-05-12T12:42:19.355Z,28.57
2018-05-12T12:43:19.351Z,28.37
2018-05-12T12:45:12.237Z,29.60
2018-05-12T12:46:12.222Z,30.13
2018-05-12T12:48:05.101Z,28.54
2018-05-12T12:49:05.096Z,28.45
2018-05-12T12:50:57.981Z,29.12
2018-05-12T12:51:57.963Z,28.94
2018-05-12T12:53:50.847Z,28.97
2018-05-12T12:54:50.842Z,28.25
2018-05-12T12:56:43.732Z,29.65
2018-05-12T12:57:43.714Z,29.66
2018-05-12T12:59:36.604Z,31.33
2018-05-12T13:00:36.587Z,29.86
2018-05-12T13:02:29.468Z,30.30
2018-05-12T13:03:29.467Z,30.62
2018-05-12T13:05:22.349Z,29.38
2018-05-12T13:06:22.387Z,28.79
2018-05-12T13:08:15.219Z,29.20
2018-05-12T13:09:15.215Z,28.70
2018-05-12T13:11:08.105Z,29.50
2018-05-12T13:12:08.090Z,29.94
2018-05-12T13:14:00.969Z,30.46
2018-05-12T13:15:00.964Z,29.19
2018-05-12T13:16:53.857Z,29.78
2018-05-12T13:17:53.842Z,30.02
2018-05-12T13:19:46.733Z,30.15
2018-05-12T13:20:46.720Z,29.88
2018-05-12T13:22:39.658Z,28.85
2018-05-12T13:23:39.595Z,29.31
2018-05-12T13:25:32.481Z,29.97
2018-05-12T13:26:32.468Z,28.30
2018-05-12T13:28:25.346Z,29.01
2018-05-12T13:29:25.341Z,28.96
2018-05-12T13:31:18.230Z,28.44
2018-05-12T13:32:18.231Z,28.63
2018-05-12T13:34:11.095Z,28.57
2018-05-12T13:35:11.093Z,29.73
2018-05-12T13:37:03.977Z,29.42
2018-05-12T13:38:03.959Z,29.31
2018-05-12T13:39:56.844Z,29.90
2018-05-12T13:40:56.832Z,28.81
2018-05-12T13:42:49.705Z,29.61
2018-05-12T13:43:49.700Z,29.59
2018-05-12T13:45:42.623Z,29.19
2018-05-12T13:46:42.577Z,28.98
2018-05-12T13:48:35.450Z,27.89
2018-05-12T13:49:35.446Z,27.25
2018-05-12T13:51:28.327Z,28.27
2018-05-12T13:52:28.312Z,28.14
2018-05-12T13:54:21.196Z,28.14
2018-05-12T13:55:21.179Z,27.39
2018-05-12T13:57:14.054Z,27.54
2018-05-12T13:58:14.050Z,27.55
2018-05-12T14:00:06.925Z,27.80
2018-05-12T14:01:06.917Z,28.30
2018-05-12T14:02:59.786Z,28.11
2018-05-12T14:03:59.775Z,28.07
2018-05-12T14:05:52.659Z,27.42
2018-05-12T14:06:52.644Z,27.67
2018-05-12T14:08:45.513Z,28.44
2018-05-12T14:09:45.510Z,28.14
2018-05-12T14:11:38.395Z,28.10
2018-05-12T14:12:38.381Z,28.44
2018-05-12T14:14:31.261Z,28.85
2018-05-12T14:15:31.257Z,28.72
2018-05-12T14:17:24.125Z,28.02
2018-05-12T14:18:24.111Z,28.10
2018-05-12T14:20:16.989Z,28.44
2018-05-12T14:21:16.978Z,28.15
2018-05-12T14:23:09.849Z,27.92
2018-05-12T14:24:09.838Z,28.54
2018-05-12T14:26:02.720Z,28.19
2018-05-12T14:27:02.705Z,27.65
2018-05-12T14:28:55.576Z,27.78
2018-05-12T14:29:55.566Z,28.08
2018-05-12T14:31:48.470Z,28.35
2018-05-12T14:32:48.432Z,28.57
2018-05-12T14:34:41.321Z,28.05
2018-05-12T14:35:41.300Z,28.54
2018-05-12T14:37:34.176Z,28.11
2018-05-12T14:38:34.167Z,27.40
2018-05-12T14:40:27.046Z,28.07
2018-05-12T14:41:27.027Z,28.32
2018-05-12T14:43:19.903Z,28.32
2018-05-12T14:44:19.892Z,28.54
2018-05-12T14:46:12.770Z,28.56
2018-05-12T14:47:12.754Z,28.57
2018-05-12T14:49:05.628Z,28.39
2018-05-12T14:50:05.616Z,28.32
2018-05-12T14:51:58.496Z,28.72
2018-05-12T14:52:58.481Z,28.22
2018-05-12T14:54:51.358Z,28.05
2018-05-12T14:55:51.344Z,27.85
2018-05-12T14:57:44.225Z,28.42
2018-05-12T14:58:44.211Z,28.75
2018-05-12T15:00:37.092Z,28.08
2018-05-12T15:01:37.080Z,28.00
2018-05-12T15:03:29.947Z,28.15
2018-05-12T15:04:29.942Z,28.12
2018-05-12T15:06:22.821Z,28.38
2018-05-12T15:07:22.806Z,27.92
2018-05-12T15:09:15.676Z,28.05
2018-05-12T15:10:15.667Z,27.83
2018-05-12T15:12:08.552Z,27.39
2018-05-12T15:13:08.530Z,27.78
2018-05-12T15:15:01.410Z,27.58
2018-05-12T15:16:01.390Z,27.26
2018-05-12T15:17:54.261Z,28.00
2018-05-12T15:18:54.253Z,27.67
2018-05-12T15:20:47.199Z,27.65
2018-05-12T15:21:47.113Z,27.85
2018-05-12T15:23:40.070Z,27.67
2018-05-12T15:24:39.979Z,27.45
2018-05-12T15:26:32.856Z,27.39
2018-05-12T15:27:32.838Z,27.17
2018-05-12T15:29:25.707Z,27.33
2018-05-12T15:30:25.699Z,27.30
2018-05-12T15:32:18.576Z,26.89
2018-05-12T15:33:18.559Z,27.03
2018-05-12T15:35:11.437Z,27.30
2018-05-12T15:36:11.432Z,27.29
2018-05-12T15:38:04.295Z,26.99
2018-05-12T15:39:04.282Z,26.99
2018-05-12T15:40:57.166Z,26.81
2018-05-12T15:41:57.144Z,26.83
2018-05-12T15:43:50.199Z,26.88
2018-05-12T15:44:50.007Z,27.03
2018-05-12T15:46:42.886Z,26.93
2018-05-12T15:47:42.867Z,26.89
2018-05-12T15:49:35.740Z,26.70
2018-05-12T15:50:35.727Z,26.85
2018-05-12T15:52:28.609Z,26.74
2018-05-12T15:53:28.589Z,26.58
2018-05-12T15:55:21.466Z,26.70
2018-05-12T15:56:21.449Z,26.68
2018-05-12T15:58:14.318Z,26.80
2018-05-12T15:59:14.310Z,26.60
2018-05-12T16:01:07.190Z,26.68
2018-05-12T16:02:07.172Z,26.65
2018-05-12T16:04:00.039Z,26.68
2018-05-12T16:05:00.027Z,26.66
2018-05-12T16:06:52.903Z,26.75
2018-05-12T16:07:52.885Z,26.70
2018-05-12T16:09:45.755Z,26.58
2018-05-12T16:10:45.746Z,26.51
2018-05-12T16:12:38.628Z,26.66
2018-05-12T16:13:38.605Z,26.53
2018-05-12T16:15:31.484Z,26.52
2018-05-12T16:16:31.465Z,26.53
2018-05-12T16:18:24.334Z,26.77
2018-05-12T16:19:24.327Z,26.52
2018-05-12T16:21:17.200Z,26.53
2018-05-12T16:22:17.182Z,26.48
2018-05-12T16:24:10.060Z,26.62
2018-05-12T16:25:10.049Z,26.68
2018-05-12T16:27:02.924Z,26.58
2018-05-12T16:28:02.905Z,26.45
2018-05-12T16:29:55.779Z,26.51
2018-05-12T16:30:55.766Z,26.58
2018-05-12T16:32:48.643Z,26.38
2018-05-12T16:33:48.626Z,26.55
2018-05-12T16:35:41.506Z,26.53
2018-05-12T16:36:41.486Z,26.55
2018-05-12T16:38:34.355Z,26.63
2018-05-12T16:39:34.345Z,26.62
2018-05-12T16:41:27.225Z,26.78
2018-05-12T16:42:27.202Z,26.95
2018-05-12T16:44:20.072Z,26.84
2018-05-12T16:45:20.063Z,26.36
2018-05-12T16:47:12.936Z,25.91
2018-05-12T16:48:12.919Z,25.69
2018-05-12T16:50:05.797Z,25.44
2018-05-12T16:51:05.820Z,25.41
2018-05-12T16:52:58.643Z,25.58
2018-05-12T16:53:58.633Z,25.75
2018-05-12T16:55:51.507Z,25.60
2018-05-12T16:56:51.490Z,25.46
2018-05-12T16:58:44.358Z,25.25
2018-05-12T16:59:44.348Z,25.13
2018-05-12T17:01:37.257Z,25.41
2018-05-12T17:02:37.205Z,25.22
2018-05-12T17:04:30.144Z,25.10
2018-05-12T17:05:30.065Z,25.18
2018-05-12T17:07:22.937Z,24.86
2018-05-12T17:08:22.918Z,25.11
2018-05-12T17:10:15.792Z,25.01
2018-05-12T17:11:15.780Z,25.26
2018-05-12T17:13:08.645Z,24.95
2018-05-12T17:14:08.630Z,24.96
2018-05-12T17:16:01.506Z,25.06
2018-05-12T17:17:01.487Z,24.99
2018-05-12T17:18:54.349Z,25.06
2018-05-12T17:19:54.343Z,25.06
2018-05-12T17:21:47.221Z,25.16
2018-05-12T17:22:47.201Z,25.07
2018-05-12T17:24:40.077Z,25.07
2018-05-12T17:25:40.063Z,25.01
2018-05-12T17:27:32.936Z,25.03
2018-05-12T17:28:32.917Z,24.98
2018-05-12T17:30:25.792Z,24.65
2018-05-12T17:31:25.773Z,24.73
2018-05-12T17:33:18.642Z,24.48
2018-05-12T17:34:18.631Z,24.66
2018-05-12T17:36:11.506Z,24.70
2018-05-12T17:37:11.485Z,24.76
2018-05-12T17:39:04.351Z,24.55
2018-05-12T17:40:04.345Z,24.57
2018-05-12T17:41:57.215Z,24.63
2018-05-12T17:42:57.268Z,24.57
2018-05-12T17:44:50.066Z,24.20
2018-05-12T17:45:50.054Z,24.23
2018-05-12T17:47:42.929Z,24.29
2018-05-12T17:48:42.908Z,24.21
2018-05-12T17:50:35.781Z,24.08
2018-05-12T17:51:35.764Z,24.05
2018-05-12T17:53:28.700Z,23.86
2018-05-12T17:54:28.625Z,23.83
2018-05-12T17:56:21.512Z,23.78
2018-05-12T17:57:21.476Z,23.81
2018-05-12T17:59:14.343Z,23.69
2018-05-12T18:00:14.331Z,23.59
2018-05-12T18:02:07.282Z,23.58
2018-05-12T18:03:07.190Z,23.68
2018-05-12T18:05:00.067Z,23.69
2018-05-12T18:06:00.039Z,23.55
2018-05-12T18:07:52.910Z,23.40
2018-05-12T18:08:52.893Z,23.39
2018-05-12T18:10:45.765Z,23.27
2018-05-12T18:11:45.744Z,23.31
2018-05-12T18:13:38.608Z,23.18
2018-05-12T18:14:38.606Z,23.18
2018-05-12T18:16:31.471Z,23.15
2018-05-12T18:17:31.455Z,23.21
2018-05-12T18:19:24.331Z,23.00
2018-05-12T18:20:24.307Z,23.00
2018-05-12T18:22:17.181Z,22.96
2018-05-12T18:23:17.253Z,23.02
2018-05-12T18:25:10.022Z,22.93
2018-05-12T18:26:10.044Z,22.91
2018-05-12T18:28:02.879Z,22.80
2018-05-12T18:29:02.860Z,22.72
2018-05-12T18:30:55.744Z,22.73
2018-05-12T18:31:55.737Z,22.73
2018-05-12T18:33:48.586Z,22.63